Terminal Aerodrome Forecast
Issued by NWS

Current Version | Previous Version | Text Only | Print | Product List | Glossary On
Versions: 1 2 3 4 5 6 7 8 9 10 11 12
000
FTAK31 PAJN 262325
TAFAJN
TAF
PAJN 262325Z 2700/2724 VRB03KT P6SM FEW030 OVC045
     FM270400 VRB03KT P6SM VCSH BKN040 OVC060
     FM271200 31006KT P6SM SCT040 BKN080=

USA.gov is the U.S. government's official web portal to all federal, state and local government web resources and services.